Current | Forecast
Updated: 12:00 AM JST on June 27, 2017
Observed at Fukuoka Airport, Japan
Temperature 73°F
Humidity 78%
Dew Point 66°F
Wind Variable at 2 mph
Pressure 29.77 in (Steady)
Conditions Clear
Visibility 6.2 miles
UV N/A
Clouds
Yesterday's Maximum 81°F
Yesterday's Minimum 72°F approx.
Yesterday's Cooling Degree Days 11 approx.
Sunrise5:12 AM JST
Sunset7:33 PM JST
Moon Rise8:27 AM JST
Moon Set10:14 PM JST
Moon PhaseMoon Phase
Waxing Crescent
Raw METARMETAR RJFF 261500Z AUTO VRB02KT 9999 NSC 23/19 Q1008 RMK A2979


Monday
. High: 66° F.
Tuesday
. High: 71° F.
Wednesday
. High: 68° F.
Thursday
. High: 69° F.
Friday
. High: 69° F.
Saturday
. High: 71° F.
Sunday
. High: 78° F.
Monday
. High: 77° F.

Units: English | Metric

Find the Weather for any City, State or Zipcode, or Country:

U.S. State List | Severe Weather | Tropical Storms | Ski Conditions
United States | Canada | Central America | South America | Asia | Europe | Australia | Africa | Islands

Weather Underground

© Copyright 2017
The Weather Company, LLC